Time;durP1;ratioP1;P1;durP2;ratioP2;P2;SDS_P1;SDS_P2;PMS_P1;PMS_P2;Temp;Humidity;BMP_temperature;BMP_pressure;BME280_temperature;BME280_humidity;BME280_pressure;Samples;Min_cycle;Max_cycle;Signal;HPM_P1;HPM_P2
2022/08/13 00:01:36;;;;;;;1.70;1.60;;;21.10;79.70;;;;;;5054461;28;20217;-88
2022/08/13 00:04:14;;;;;;;1.50;1.40;;;21.00;79.90;;;;;;5055105;28;20202;-88
2022/08/13 00:07:07;;;;;;;5.28;2.05;;;21.00;80.20;;;;;;5054486;28;20213;-87
2022/08/13 00:09:39;;;;;;;1.35;1.35;;;20.90;80.30;;;;;;5054230;28;20205;-87
2022/08/13 00:15:08;;;;;;;1.80;1.65;;;20.90;81.00;;;;;;5054360;28;20281;-87
2022/08/13 00:17:41;;;;;;;1.60;1.50;;;20.90;81.10;;;;;;5054403;28;20205;-87
2022/08/13 00:20:38;;;;;;;1.80;1.70;;;20.90;81.60;;;;;;5054341;28;20222;-87
2022/08/13 00:23:08;;;;;;;1.60;1.50;;;21.00;81.90;;;;;;5054552;28;20209;-87
2022/08/13 00:25:54;;;;;;;1.73;1.63;;;20.90;81.70;;;;;;5054359;28;20198;-87
2022/08/13 00:28:28;;;;;;;1.83;1.73;;;20.90;82.60;;;;;;5054316;28;20206;-87
2022/08/13 00:30:59;;;;;;;1.90;1.80;;;20.90;82.40;;;;;;5054397;28;20237;-88
2022/08/13 00:33:27;;;;;;;2.10;1.90;;;20.80;82.60;;;;;;5054200;28;20206;-88
2022/08/13 00:36:16;;;;;;;1.83;1.73;;;20.80;82.90;;;;;;5053961;28;20196;-88
2022/08/13 00:39:04;;;;;;;2.17;1.77;;;20.70;83.20;;;;;;5053957;28;20214;-88
2022/08/13 00:41:41;;;;;;;1.80;1.70;;;20.70;83.70;;;;;;5053891;28;20229;-88
2022/08/13 00:44:31;;;;;;;1.30;1.30;;;20.70;84.00;;;;;;5053920;28;20214;-88
2022/08/13 00:49:47;;;;;;;1.98;1.85;;;20.50;84.80;;;;;;5053662;28;20212;-88
2022/08/13 00:52:31;;;;;;;2.78;1.85;;;20.50;85.20;;;;;;5054005;28;20228;-87
2022/08/13 00:55:03;;;;;;;1.70;1.60;;;20.50;85.60;;;;;;5053450;28;20316;-88
2022/08/13 00:57:34;;;;;;;1.73;1.63;;;20.50;85.70;;;;;;5053782;28;20218;-87
2022/08/13 01:00:13;;;;;;;4.45;2.38;;;20.40;85.90;;;;;;5053187;28;20221;-88
2022/08/13 01:02:42;;;;;;;2.17;1.98;;;20.40;86.10;;;;;;5053643;28;20205;-87
2022/08/13 01:05:24;;;;;;;1.70;1.60;;;20.40;86.40;;;;;;5053354;28;20206;-87
2022/08/13 01:08:01;;;;;;;2.35;1.80;;;20.30;86.40;;;;;;5053585;28;20202;-86
2022/08/13 01:10:35;;;;;;;2.25;2.05;;;20.30;86.70;;;;;;5053355;28;20236;-87
2022/08/13 01:13:11;;;;;;;2.10;1.90;;;20.30;87.40;;;;;;5053244;28;20284;-87
2022/08/13 01:15:41;;;;;;;1.73;1.63;;;20.30;87.80;;;;;;5053101;28;20308;-87
2022/08/13 01:18:26;;;;;;;2.42;2.22;;;20.20;87.80;;;;;;5053190;28;20232;-88
2022/08/13 01:21:05;;;;;;;1.85;1.75;;;20.20;88.30;;;;;;5053510;28;20296;-88
2022/08/13 01:23:39;;;;;;;3.05;2.13;;;20.10;88.60;;;;;;5053174;28;20232;-88
2022/08/13 01:26:10;;;;;;;2.20;2.00;;;20.10;89.20;;;;;;5053052;28;20193;-87
2022/08/13 01:28:39;;;;;;;2.03;1.92;;;20.10;89.90;;;;;;5053033;28;20236;-88
2022/08/13 01:31:11;;;;;;;2.00;1.73;;;20.00;89.90;;;;;;5052910;28;20257;-87
2022/08/13 01:33:47;;;;;;;1.90;1.80;;;20.00;90.40;;;;;;5053325;28;20221;-88
2022/08/13 01:36:23;;;;;;;1.92;1.83;;;19.90;90.20;;;;;;5051924;28;20225;-88
2022/08/13 01:39:13;;;;;;;1.90;1.80;;;19.90;90.70;;;;;;5052621;28;20209;-87
2022/08/13 01:41:46;;;;;;;2.60;2.40;;;19.90;91.20;;;;;;5053240;28;20226;-88
2022/08/13 01:44:24;;;;;;;1.63;1.52;;;19.90;91.00;;;;;;5052468;28;20209;-87
2022/08/13 01:52:41;;;;;;;1.92;1.80;;;19.90;91.30;;;;;;5052934;28;20269;-87
2022/08/13 01:55:12;;;;;;;1.90;1.80;;;19.90;91.50;;;;;;5052521;28;20222;-88
2022/08/13 01:57:44;;;;;;;2.40;2.20;;;19.80;91.60;;;;;;5052504;28;20292;-87
2022/08/13 02:00:23;;;;;;;2.45;2.25;;;19.80;91.80;;;;;;5052827;28;20285;-88
2022/08/13 02:02:55;;;;;;;1.75;1.65;;;19.80;92.10;;;;;;5053088;28;20209;-88
2022/08/13 02:05:26;;;;;;;2.55;2.35;;;19.80;92.30;;;;;;5052699;28;20271;-87
2022/08/13 02:08:16;;;;;;;2.60;2.40;;;19.70;92.50;;;;;;5052350;28;20209;-88
2022/08/13 02:10:50;;;;;;;2.22;2.03;;;19.70;92.70;;;;;;5052321;28;20256;-88
2022/08/13 02:13:23;;;;;;;2.83;2.28;;;19.70;92.90;;;;;;5052671;28;20213;-88
2022/08/13 02:16:00;;;;;;;2.38;2.17;;;19.70;93.20;;;;;;5052390;28;20271;-87
2022/08/13 02:18:28;;;;;;;2.40;2.20;;;19.60;93.20;;;;;;5054528;28;20240;-87
2022/08/13 02:20:59;;;;;;;2.60;2.40;;;19.60;93.50;;;;;;5056489;28;20231;-87
2022/08/13 02:23:32;;;;;;;18.10;2.10;;;19.60;93.70;;;;;;5056780;28;20205;-87
2022/08/13 02:26:23;;;;;;;1.98;1.88;;;19.60;94.00;;;;;;5056459;28;20206;-87
2022/08/13 02:28:55;;;;;;;3.10;1.98;;;19.60;94.00;;;;;;5056299;28;20209;-87
2022/08/13 02:31:24;;;;;;;2.30;2.10;;;19.60;94.20;;;;;;5056368;28;20251;-88
2022/08/13 02:34:13;;;;;;;2.67;1.85;;;19.50;94.30;;;;;;5066988;28;20216;-88
2022/08/13 02:36:48;;;;;;;10.60;2.55;;;19.50;94.70;;;;;;5078080;28;20221;-87
2022/08/13 02:39:37;;;;;;;4.50;2.20;;;19.50;94.90;;;;;;5056590;28;20202;-87
2022/08/13 02:42:12;;;;;;;2.13;2.03;;;19.40;95.20;;;;;;5056354;28;20221;-87
2022/08/13 02:44:44;;;;;;;1.88;1.63;;;19.40;95.50;;;;;;5056562;28;20216;-87
2022/08/13 02:47:16;;;;;;;2.00;1.90;;;19.30;95.70;;;;;;5055780;28;20212;-87
2022/08/13 02:49:50;;;;;;;2.70;2.50;;;19.30;96.10;;;;;;5055824;28;20244;-87
2022/08/13 02:52:23;;;;;;;1.83;1.73;;;19.20;96.40;;;;;;5056125;28;20229;-87
2022/08/13 02:54:57;;;;;;;2.97;2.63;;;19.20;96.80;;;;;;5055944;28;20285;-87
2022/08/13 02:57:27;;;;;;;3.58;3.00;;;19.10;97.10;;;;;;5055990;28;20212;-89
2022/08/13 02:59:58;;;;;;;5.43;2.08;;;19.10;97.40;;;;;;5055776;28;20229;-87
2022/08/13 03:02:38;;;;;;;2.38;2.25;;;19.10;97.70;;;;;;5056063;28;20205;-87
2022/08/13 03:05:10;;;;;;;2.63;2.42;;;19.10;97.80;;;;;;5055927;28;20210;-87
2022/08/13 03:07:42;;;;;;;2.38;2.17;;;19.10;97.90;;;;;;5055827;28;20224;-88
2022/08/13 03:10:21;;;;;;;2.25;2.05;;;19.10;98.10;;;;;;5055740;28;20288;-87
2022/08/13 03:13:11;;;;;;;2.55;2.35;;;19.10;98.40;;;;;;5055635;28;20213;-87
2022/08/13 03:15:40;;;;;;;4.10;2.55;;;19.00;98.60;;;;;;5055549;28;20217;-87
2022/08/13 03:18:30;;;;;;;3.28;2.33;;;19.00;99.00;;;;;;5055573;28;20217;-87
2022/08/13 03:21:19;;;;;;;2.10;2.00;;;18.90;99.20;;;;;;5055350;28;20226;-87
2022/08/13 03:24:09;;;;;;;2.70;2.50;;;18.90;99.40;;;;;;5055380;28;20205;-87
2022/08/13 03:26:39;;;;;;;2.60;2.40;;;18.80;99.80;;;;;;5055688;28;20209;-87
2022/08/13 03:29:09;;;;;;;2.28;2.10;;;18.90;99.90;;;;;;5053748;28;20214;-87
2022/08/13 03:31:39;;;;;;;2.60;2.40;;;18.90;99.90;;;;;;5055155;28;20233;-87
2022/08/13 03:34:22;;;;;;;2.40;2.20;;;18.80;99.90;;;;;;5055272;28;20205;-87
2022/08/13 03:36:53;;;;;;;1.98;1.60;;;18.90;99.90;;;;;;5054934;28;20222;-87
2022/08/13 03:39:26;;;;;;;3.95;2.75;;;18.90;99.90;;;;;;5055015;28;20220;-86
2022/08/13 03:41:56;;;;;;;3.05;2.50;;;18.90;99.90;;;;;;5054843;28;20248;-87
2022/08/13 03:44:29;;;;;;;2.30;2.03;;;18.90;99.90;;;;;;5055089;28;20202;-88
2022/08/13 03:47:03;;;;;;;3.85;2.10;;;18.90;99.90;;;;;;5054746;28;20213;-89
2022/08/13 03:49:51;;;;;;;1.83;1.73;;;18.90;99.90;;;;;;5054357;28;20206;-87
2022/08/13 03:52:20;;;;;;;1.98;1.88;;;18.90;99.90;;;;;;5054823;28;20249;-87
2022/08/13 03:55:01;;;;;;;3.40;2.40;;;18.80;99.90;;;;;;5055378;28;20216;-88
2022/08/13 03:57:30;;;;;;;3.70;2.45;;;18.80;99.90;;;;;;5054570;28;20245;-88
2022/08/13 04:00:20;;;;;;;1.65;1.58;;;18.80;99.90;;;;;;5054483;28;20297;-88
2022/08/13 04:02:52;;;;;;;2.60;2.40;;;18.80;99.90;;;;;;5054696;28;20218;-87
2022/08/13 04:05:22;;;;;;;2.72;2.20;;;18.80;99.90;;;;;;5054729;28;20202;-88
2022/08/13 04:08:11;;;;;;;2.47;2.28;;;18.80;99.90;;;;;;5054569;28;20209;-87
2022/08/13 04:10:42;;;;;;;2.67;2.47;;;18.80;99.90;;;;;;5054360;28;20236;-88
2022/08/13 04:13:22;;;;;;;2.67;2.47;;;18.80;99.90;;;;;;5054547;28;20206;-87
2022/08/13 04:16:14;;;;;;;2.20;2.10;;;18.80;99.90;;;;;;5053912;28;20222;-87
2022/08/13 04:18:46;;;;;;;2.45;2.25;;;18.80;99.90;;;;;;5054551;28;20231;-88
2022/08/13 04:21:16;;;;;;;2.53;2.33;;;18.80;99.90;;;;;;5054574;28;20240;-87
2022/08/13 04:23:52;;;;;;;2.78;2.58;;;18.80;99.90;;;;;;5054424;28;20205;-87
2022/08/13 04:26:24;;;;;;;5.13;3.40;;;18.80;99.90;;;;;;5054048;28;20217;-88
2022/08/13 04:29:02;;;;;;;3.53;2.78;;;18.80;99.90;;;;;;5054183;28;20205;-88
2022/08/13 04:31:33;;;;;;;2.83;2.55;;;18.90;99.90;;;;;;5054498;28;20230;-87
2022/08/13 04:34:17;;;;;;;2.78;2.58;;;19.00;99.90;;;;;;5054036;28;20224;-89
2022/08/13 04:37:07;;;;;;;3.85;3.50;;;19.10;99.90;;;;;;5053779;28;20226;-89
2022/08/13 04:39:37;;;;;;;3.00;2.75;;;19.10;99.90;;;;;;5053897;28;20288;-87
2022/08/13 04:42:26;;;;;;;2.63;2.42;;;19.10;99.90;;;;;;5053983;28;20236;-86
2022/08/13 04:45:05;;;;;;;3.15;2.85;;;19.10;99.90;;;;;;5053969;28;20210;-87
2022/08/13 04:47:42;;;;;;;3.15;2.85;;;19.10;99.90;;;;;;5053592;28;20232;-89
2022/08/13 04:50:14;;;;;;;2.70;2.50;;;19.20;99.90;;;;;;5053278;28;20209;-87
2022/08/13 04:52:46;;;;;;;7.80;2.22;;;19.20;99.90;;;;;;5053748;28;20210;-87
2022/08/13 04:55:17;;;;;;;2.42;2.22;;;19.20;99.90;;;;;;5053282;28;20206;-89
2022/08/13 04:57:48;;;;;;;2.97;2.78;;;19.20;99.90;;;;;;5053777;28;20222;-89
2022/08/13 05:00:25;;;;;;;2.70;2.50;;;19.30;99.90;;;;;;5053308;28;20236;-86
2022/08/13 05:02:55;;;;;;;2.67;2.47;;;19.30;99.90;;;;;;5053611;28;20217;-87
2022/08/13 05:05:25;;;;;;;2.88;2.67;;;19.30;99.90;;;;;;5053342;28;20206;-87
2022/08/13 05:07:54;;;;;;;3.58;3.00;;;19.30;99.90;;;;;;5053374;28;20236;-87
2022/08/13 05:10:23;;;;;;;2.45;2.30;;;19.30;99.90;;;;;;5053160;28;20321;-88
2022/08/13 05:13:00;;;;;;;2.35;2.17;;;19.30;99.90;;;;;;5053485;28;20212;-88
2022/08/13 05:15:35;;;;;;;2.63;2.42;;;19.30;99.90;;;;;;5053495;28;20212;-88
2022/08/13 05:18:17;;;;;;;4.57;2.28;;;19.30;99.90;;;;;;5052921;28;20222;-88
2022/08/13 05:20:56;;;;;;;2.55;2.35;;;19.30;99.90;;;;;;5053126;28;20287;-89
2022/08/13 05:23:25;;;;;;;2.88;2.58;;;19.30;99.90;;;;;;5053024;28;20209;-88
2022/08/13 05:26:13;;;;;;;2.65;2.45;;;19.40;99.90;;;;;;5053045;28;20232;-88
2022/08/13 05:29:04;;;;;;;4.03;3.40;;;19.40;99.90;;;;;;5052930;28;20224;-89
2022/08/13 05:31:33;;;;;;;2.90;2.70;;;19.50;99.90;;;;;;5052925;28;20255;-88
2022/08/13 05:34:24;;;;;;;2.72;2.50;;;19.50;99.90;;;;;;5052934;28;20210;-88
2022/08/13 05:36:54;;;;;;;3.00;2.75;;;19.60;99.90;;;;;;5052886;28;20229;-88
2022/08/13 05:39:43;;;;;;;3.47;3.17;;;19.70;99.90;;;;;;5053121;28;20205;-88
2022/08/13 05:42:19;;;;;;;3.08;2.88;;;19.80;99.90;;;;;;5052870;28;20253;-88
2022/08/13 05:44:55;;;;;;;3.47;3.10;;;19.90;99.90;;;;;;5052968;28;20229;-89
2022/08/13 05:47:24;;;;;;;2.92;2.60;;;20.00;99.90;;;;;;5052414;28;20275;-88
2022/08/13 05:49:55;;;;;;;4.20;2.88;;;20.10;99.90;;;;;;5052511;28;20261;-89
2022/08/13 05:52:34;;;;;;;2.90;2.70;;;20.20;99.90;;;;;;5053019;28;20233;-88
2022/08/13 05:55:14;;;;;;;3.25;2.95;;;20.20;99.90;;;;;;5069424;28;20213;-87
2022/08/13 05:58:04;;;;;;;3.10;2.80;;;20.40;99.90;;;;;;5069916;28;20226;-89
2022/08/13 06:03:40;;;;;;;4.22;3.83;;;20.50;99.90;;;;;;5052230;28;20220;-87
2022/08/13 06:06:30;;;;;;;4.60;4.05;;;20.50;99.90;;;;;;5052950;28;20205;-87
2022/08/13 06:09:03;;;;;;;4.07;3.20;;;20.70;99.90;;;;;;5052588;28;20212;-87
2022/08/13 06:11:39;;;;;;;4.10;3.75;;;20.80;99.90;;;;;;5052950;28;20302;-87
2022/08/13 06:14:34;;;;;;;3.33;3.03;;;20.90;99.90;;;;;;5052432;28;20202;-87
2022/08/13 06:17:06;;;;;;;4.00;3.70;;;21.00;99.90;;;;;;5052167;28;20217;-88
2022/08/13 06:19:43;;;;;;;4.68;4.35;;;21.00;99.90;;;;;;5052152;28;20213;-86
2022/08/13 06:22:20;;;;;;;4.72;3.90;;;21.00;99.90;;;;;;5052577;28;20253;-88
2022/08/13 06:24:51;;;;;;;3.78;3.50;;;21.00;99.90;;;;;;5052467;28;20244;-88
2022/08/13 06:27:23;;;;;;;5.75;4.43;;;21.00;99.90;;;;;;5052520;28;20229;-88
2022/08/13 06:30:14;;;;;;;4.00;3.60;;;21.00;99.90;;;;;;5051886;28;20216;-89
2022/08/13 06:33:01;;;;;;;4.20;3.80;;;21.00;99.90;;;;;;5052823;28;20206;-88
2022/08/13 06:35:51;;;;;;;4.20;3.80;;;21.10;99.90;;;;;;5052168;28;20205;-86
2022/08/13 06:38:29;;;;;;;4.15;3.85;;;21.10;99.90;;;;;;5052014;28;20234;-87
2022/08/13 06:41:03;;;;;;;6.53;3.75;;;21.20;99.90;;;;;;5052288;28;20237;-87
2022/08/13 06:43:32;;;;;;;4.80;4.40;;;21.20;99.90;;;;;;5052723;28;20244;-86
2022/08/13 06:46:17;;;;;;;5.82;5.38;;;21.30;99.90;;;;;;5052087;28;20201;-87
2022/08/13 06:48:57;;;;;;;4.78;4.38;;;21.50;99.90;;;;;;5051481;28;20230;-87
2022/08/13 06:51:25;;;;;;;4.38;4.05;;;21.70;99.90;;;;;;5052209;28;20287;-87
2022/08/13 06:53:55;;;;;;;4.10;3.75;;;21.80;99.90;;;;;;5051930;28;20202;-87
2022/08/13 06:56:44;;;;;;;4.30;3.92;;;22.00;99.90;;;;;;5052116;28;20214;-87
2022/08/13 06:59:33;;;;;;;4.30;3.60;;;22.00;99.90;;;;;;5051842;28;20225;-87
2022/08/13 07:02:25;;;;;;;4.07;3.70;;;21.80;99.90;;;;;;5052060;28;20236;-87
2022/08/13 07:04:58;;;;;;;3.95;3.63;;;21.70;99.90;;;;;;5054828;28;20202;-87
2022/08/13 07:07:27;;;;;;;4.75;4.35;;;21.70;99.90;;;;;;5055689;28;20216;-87
2022/08/13 07:10:01;;;;;;;4.47;4.18;;;21.80;99.90;;;;;;5055831;28;20205;-87
2022/08/13 07:12:33;;;;;;;7.90;4.63;;;21.80;99.90;;;;;;5055781;28;20232;-87
2022/08/13 07:15:01;;;;;;;3.70;3.42;;;21.80;99.90;;;;;;5055603;28;20210;-87
2022/08/13 07:17:35;;;;;;;5.28;4.28;;;21.90;99.90;;;;;;5055564;28;20248;-87
2022/08/13 07:20:12;;;;;;;3.85;3.55;;;21.90;99.90;;;;;;5055596;28;20198;-87
2022/08/13 07:22:52;;;;;;;4.32;3.95;;;22.00;99.90;;;;;;5055757;28;20293;-88
2022/08/13 07:25:44;;;;;;;3.95;3.65;;;22.00;99.90;;;;;;5055691;28;20202;-88
2022/08/13 07:28:27;;;;;;;4.13;3.83;;;22.20;99.90;;;;;;5055203;28;20210;-88
2022/08/13 07:31:17;;;;;;;6.05;3.42;;;22.40;99.90;;;;;;5055467;28;20233;-88
2022/08/13 07:33:53;;;;;;;4.28;3.92;;;22.50;99.90;;;;;;5055303;28;20217;-89
2022/08/13 07:36:29;;;;;;;4.05;3.72;;;22.50;99.90;;;;;;5055771;28;20293;-88
2022/08/13 07:39:00;;;;;;;3.80;3.50;;;22.70;99.60;;;;;;5054707;28;20228;-88
2022/08/13 07:41:40;;;;;;;7.43;4.38;;;22.80;99.70;;;;;;5055016;28;20237;-88
2022/08/13 07:44:28;;;;;;;4.60;4.20;;;23.00;99.50;;;;;;5055449;28;20213;-88
2022/08/13 07:46:59;;;;;;;3.55;3.30;;;23.00;99.30;;;;;;5055051;28;20213;-87
2022/08/13 07:49:28;;;;;;;4.95;4.35;;;23.20;99.60;;;;;;5054673;28;20213;-87
2022/08/13 07:52:13;;;;;;;4.63;4.22;;;23.40;98.90;;;;;;5055013;28;20225;-87
2022/08/13 07:54:45;;;;;;;4.28;3.83;;;23.60;98.30;;;;;;5054849;28;20206;-87
2022/08/13 07:57:18;;;;;;;4.90;4.50;;;23.70;98.30;;;;;;5054667;28;20323;-87
2022/08/13 07:59:54;;;;;;;4.40;4.10;;;23.70;98.10;;;;;;5054638;28;20209;-88
2022/08/13 08:02:43;;;;;;;4.90;4.50;;;23.80;97.90;;;;;;5055009;28;20214;-87
2022/08/13 08:05:14;;;;;;;4.82;4.05;;;23.80;98.30;;;;;;5054682;28;20209;-87
2022/08/13 08:07:51;;;;;;;7.20;4.68;;;23.90;97.80;;;;;;5054403;28;20235;-87
2022/08/13 08:10:38;;;;;;;7.75;5.13;;;24.20;97.80;;;;;;5054474;28;20225;-87
2022/08/13 08:13:09;;;;;;;5.15;4.75;;;24.50;96.70;;;;;;5054746;28;20240;-88
2022/08/13 08:15:42;;;;;;;4.43;4.10;;;24.50;96.90;;;;;;5053832;28;20212;-87
2022/08/13 08:18:30;;;;;;;4.78;4.38;;;24.60;96.60;;;;;;5054407;28;20232;-87
2022/08/13 08:21:23;;;;;;;10.07;4.68;;;24.80;96.80;;;;;;5054373;28;20225;-88
2022/08/13 08:24:13;;;;;;;5.43;3.72;;;25.30;96.10;;;;;;5054174;28;20210;-88
2022/08/13 08:26:59;;;;;;;4.50;3.90;;;25.90;96.80;;;;;;5054677;28;20289;-88
2022/08/13 08:29:31;;;;;;;5.88;4.43;;;26.60;94.00;;;;;;5054043;28;20201;-88
2022/08/13 08:32:08;;;;;;;4.18;3.75;;;27.10;93.60;;;;;;5054112;28;20244;-88
2022/08/13 08:34:38;;;;;;;4.35;4.05;;;27.50;92.40;;;;;;5053915;28;20213;-88
2022/08/13 08:37:10;;;;;;;4.40;4.03;;;27.70;91.60;;;;;;5054053;28;20213;-88
2022/08/13 08:42:38;;;;;;;4.20;3.80;;;28.10;90.60;;;;;;5053905;28;20259;-87
2022/08/13 08:45:27;;;;;;;3.80;3.55;;;28.10;90.60;;;;;;5053986;28;20210;-88
2022/08/13 08:48:19;;;;;;;3.38;3.08;;;28.30;92.60;;;;;;5053384;28;20205;-88
2022/08/13 08:50:54;;;;;;;4.78;4.05;;;28.90;90.80;;;;;;5053612;28;20237;-88
2022/08/13 08:53:25;;;;;;;4.22;3.92;;;29.30;89.30;;;;;;5053867;28;20217;-88
2022/08/13 08:56:15;;;;;;;4.25;3.85;;;29.40;89.70;;;;;;5053903;28;20206;-88
2022/08/13 08:58:44;;;;;;;4.78;4.47;;;29.30;86.30;;;;;;5053311;28;20225;-88
2022/08/13 09:01:14;;;;;;;4.63;4.22;;;29.60;86.60;;;;;;5053293;28;20229;-88
2022/08/13 09:03:46;;;;;;;4.55;4.15;;;30.20;87.70;;;;;;5053468;28;20210;-88
2022/08/13 09:06:28;;;;;;;3.80;3.45;;;30.50;84.20;;;;;;5053956;28;20266;-88
2022/08/13 09:09:18;;;;;;;4.60;4.20;;;31.10;83.30;;;;;;5053283;28;20204;-87
2022/08/13 09:11:48;;;;;;;4.32;3.95;;;31.80;81.70;;;;;;5053599;28;20225;-88
2022/08/13 09:14:24;;;;;;;4.43;3.97;;;31.70;80.60;;;;;;5053625;28;20280;-88
2022/08/13 09:16:55;;;;;;;4.22;3.92;;;31.60;79.60;;;;;;5055370;28;20201;-88
2022/08/13 09:19:25;;;;;;;4.03;3.72;;;31.90;80.80;;;;;;5072748;28;20225;-88
2022/08/13 09:22:14;;;;;;;4.60;4.20;;;32.50;79.50;;;;;;5065937;28;20229;-88
2022/08/13 09:24:53;;;;;;;4.80;4.28;;;33.20;78.10;;;;;;5054175;28;20201;-88
2022/08/13 09:27:23;;;;;;;4.60;4.20;;;33.10;75.10;;;;;;5053014;28;20227;-88
2022/08/13 09:29:51;;;;;;;4.90;4.45;;;32.90;76.30;;;;;;5053382;28;20199;-88
2022/08/13 09:32:31;;;;;;;5.35;4.07;;;32.90;74.60;;;;;;5053222;28;20245;-87
2022/08/13 09:35:02;;;;;;;4.35;4.05;;;33.30;74.50;;;;;;5054440;28;20219;-87
2022/08/13 09:37:31;;;;;;;4.57;4.22;;;33.50;75.30;;;;;;5052752;28;20284;-88
2022/08/13 09:40:24;;;;;;;3.95;3.65;;;33.70;73.40;;;;;;5052833;28;20229;-88
2022/08/13 09:43:19;;;;;;;4.25;3.85;;;34.00;71.80;;;;;;5053185;28;20212;-87
2022/08/13 09:46:07;;;;;;;4.35;4.05;;;33.60;71.20;;;;;;5053003;28;20200;-87
2022/08/13 09:48:38;;;;;;;3.92;3.65;;;33.60;72.40;;;;;;5052795;28;20205;-88
2022/08/13 09:51:13;;;;;;;4.60;4.30;;;33.70;71.80;;;;;;5052996;28;20236;-88
2022/08/13 09:54:01;;;;;;;4.03;3.72;;;34.10;72.10;;;;;;5052785;28;20213;-87
2022/08/13 09:56:36;;;;;;;4.03;3.72;;;34.20;70.10;;;;;;5053458;28;20209;-88
2022/08/13 09:59:06;;;;;;;3.92;3.63;;;34.40;70.60;;;;;;5054992;28;20217;-87
2022/08/13 10:01:42;;;;;;;3.38;3.17;;;34.20;68.70;;;;;;5053559;28;20308;-88
2022/08/13 10:04:26;;;;;;;3.78;3.55;;;33.80;71.00;;;;;;5053097;28;20228;-88
2022/08/13 10:06:58;;;;;;;3.92;3.63;;;33.60;70.60;;;;;;5052688;28;20280;-89
2022/08/13 10:09:38;;;;;;;4.78;4.05;;;33.60;70.80;;;;;;5053997;28;20208;-88
2022/08/13 10:12:26;;;;;;;3.90;3.60;;;34.20;71.60;;;;;;5055595;28;20221;-88
2022/08/13 10:14:56;;;;;;;4.80;4.40;;;34.90;69.50;;;;;;5054184;28;20213;-87
2022/08/13 10:17:26;;;;;;;4.43;4.10;;;35.20;67.00;;;;;;5054409;28;20220;-88
2022/08/13 10:20:18;;;;;;;6.65;4.55;;;35.20;68.50;;;;;;5053684;28;20308;-88
2022/08/13 10:22:48;;;;;;;4.07;3.78;;;34.60;67.60;;;;;;5054475;28;20228;-88
2022/08/13 10:25:21;;;;;;;4.18;3.88;;;34.00;67.60;;;;;;5054283;28;20212;-88
2022/08/13 10:27:50;;;;;;;4.35;3.95;;;32.50;68.90;;;;;;5054180;28;20211;-87
2022/08/13 10:30:27;;;;;;;5.32;4.80;;;31.90;70.60;;;;;;5053339;28;20229;-88
2022/08/13 10:33:16;;;;;;;4.82;4.40;;;31.50;72.90;;;;;;5055418;28;20208;-88
2022/08/13 10:35:51;;;;;;;5.78;5.18;;;31.20;73.70;;;;;;5054787;28;20293;-88
2022/08/13 10:38:26;;;;;;;4.55;4.13;;;31.10;71.90;;;;;;5054746;28;20209;-88
2022/08/13 10:40:58;;;;;;;4.90;4.50;;;31.20;71.60;;;;;;5058404;28;20225;-87
2022/08/13 10:43:32;;;;;;;5.35;4.85;;;31.30;72.60;;;;;;5058825;28;20260;-88
2022/08/13 10:46:20;;;;;;;4.18;3.88;;;31.40;71.20;;;;;;5058449;28;20216;-87
2022/08/13 10:48:55;;;;;;;4.68;4.38;;;31.50;71.80;;;;;;5058422;28;20266;-88
2022/08/13 10:51:28;;;;;;;4.32;4.03;;;31.10;71.20;;;;;;5057915;28;20226;-88
2022/08/13 10:53:59;;;;;;;5.38;4.97;;;31.00;71.10;;;;;;5057996;28;20209;-88
2022/08/13 10:56:30;;;;;;;6.60;4.43;;;30.90;72.90;;;;;;5058056;28;20226;-88
2022/08/13 10:59:00;;;;;;;4.93;4.45;;;31.10;72.80;;;;;;5057755;28;20259;-88
2022/08/13 11:01:30;;;;;;;4.72;4.43;;;31.40;73.00;;;;;;5057763;28;20309;-88
2022/08/13 11:04:02;;;;;;;4.28;3.88;;;31.40;70.60;;;;;;5058422;28;20209;-88
2022/08/13 11:06:36;;;;;;;3.92;3.63;;;31.60;71.90;;;;;;5058778;28;20229;-89
2022/08/13 11:09:10;;;;;;;7.30;5.03;;;31.60;72.90;;;;;;5058744;28;20210;-89
2022/08/13 11:11:51;;;;;;;4.57;4.18;;;31.70;72.00;;;;;;5058264;28;20225;-88
2022/08/13 11:14:22;;;;;;;4.47;4.18;;;31.50;68.70;;;;;;5057367;28;20213;-88
2022/08/13 11:16:58;;;;;;;4.05;3.75;;;31.50;68.00;;;;;;5059654;28;20209;-88
2022/08/13 11:19:34;;;;;;;4.10;3.60;;;31.60;69.80;;;;;;5058892;28;20221;-88
2022/08/13 11:22:23;;;;;;;4.28;3.88;;;31.60;68.20;;;;;;5058573;28;20287;-88
2022/08/13 11:24:56;;;;;;;4.35;3.80;;;31.50;69.30;;;;;;5058396;28;20205;-88
2022/08/13 11:27:25;;;;;;;3.50;3.20;;;31.50;68.90;;;;;;5058375;28;20213;-88
2022/08/13 11:30:14;;;;;;;4.35;3.95;;;31.50;67.10;;;;;;5057540;28;20208;-88
2022/08/13 11:32:59;;;;;;;4.20;3.88;;;31.60;66.60;;;;;;5057512;28;20254;-89
2022/08/13 11:35:32;;;;;;;4.40;4.00;;;31.80;66.00;;;;;;5057419;28;20240;-89
2022/08/13 11:38:07;;;;;;;3.90;3.60;;;32.00;66.50;;;;;;5057209;28;20236;-88
2022/08/13 11:40:37;;;;;;;4.78;4.28;;;32.20;67.10;;;;;;5057402;28;20255;-88
2022/08/13 11:43:07;;;;;;;4.55;4.15;;;32.60;67.60;;;;;;5057003;28;20201;-89
2022/08/13 11:45:45;;;;;;;4.43;4.10;;;32.80;68.00;;;;;;5057425;28;20208;-88
2022/08/13 11:48:16;;;;;;;4.63;4.18;;;33.10;67.70;;;;;;5057186;28;20224;-89
2022/08/13 11:50:46;;;;;;;4.95;4.50;;;33.40;66.10;;;;;;5056235;28;20314;-88
2022/08/13 11:53:17;;;;;;;4.45;4.15;;;33.80;65.00;;;;;;5057561;28;20288;-89
2022/08/13 11:55:52;;;;;;;4.90;4.40;;;33.80;62.90;;;;;;5057310;28;20209;-88
2022/08/13 11:58:29;;;;;;;4.45;4.10;;;34.00;63.30;;;;;;5055096;28;20289;-89
2022/08/13 12:01:16;;;;;;;3.42;3.13;;;34.20;62.40;;;;;;5057313;28;20231;-89
2022/08/13 12:03:53;;;;;;;4.03;3.72;;;33.80;58.90;;;;;;5056975;28;20201;-89
2022/08/13 12:06:41;;;;;;;4.10;3.80;;;33.30;62.20;;;;;;5056811;28;20202;-88
2022/08/13 12:09:20;;;;;;;3.97;3.67;;;33.30;64.10;;;;;;5056548;28;20229;-89
2022/08/13 12:12:09;;;;;;;6.63;3.95;;;33.50;62.80;;;;;;5056394;28;20247;-89
2022/08/13 12:14:49;;;;;;;4.57;3.70;;;33.80;63.60;;;;;;5056974;28;20201;-89
2022/08/13 12:17:17;;;;;;;4.82;4.43;;;34.00;62.70;;;;;;5056858;28;20263;-89
2022/08/13 12:20:07;;;;;;;4.60;4.10;;;33.70;62.00;;;;;;5054823;28;20222;-89
2022/08/13 12:22:48;;;;;;;4.43;4.13;;;33.00;61.40;;;;;;5054662;28;20209;-89
2022/08/13 12:25:21;;;;;;;4.65;4.22;;;32.40;62.60;;;;;;5054248;28;20217;-89
2022/08/13 12:28:16;;;;;;;4.65;4.25;;;32.20;63.40;;;;;;5054258;28;20255;-89
2022/08/13 12:30:51;;;;;;;5.15;4.70;;;32.40;64.90;;;;;;5054224;28;20241;-89
2022/08/13 12:33:19;;;;;;;4.65;4.22;;;32.90;63.50;;;;;;5054164;28;20205;-89
2022/08/13 12:35:51;;;;;;;4.35;4.05;;;33.30;62.20;;;;;;5054376;28;20206;-89
2022/08/13 12:38:25;;;;;;;5.32;3.97;;;33.10;61.10;;;;;;5054011;28;20280;-89
2022/08/13 12:40:59;;;;;;;4.32;3.97;;;32.80;62.60;;;;;;5053936;28;20236;-89
2022/08/13 12:43:46;;;;;;;4.60;4.15;;;32.90;63.60;;;;;;5053815;28;20225;-88
2022/08/13 12:46:34;;;;;;;4.18;3.88;;;33.10;63.80;;;;;;5053906;28;20205;-89
2022/08/13 12:49:04;;;;;;;4.38;4.03;;;33.30;63.30;;;;;;5053502;28;20235;-89
2022/08/13 12:51:42;;;;;;;4.75;4.35;;;33.60;60.90;;;;;;5054097;28;20225;-88
2022/08/13 12:54:23;;;;;;;4.57;4.28;;;33.60;61.00;;;;;;5053807;28;20205;-89
2022/08/13 12:57:14;;;;;;;5.13;4.22;;;33.40;62.20;;;;;;5053617;28;20255;-89
2022/08/13 13:00:03;;;;;;;5.22;4.82;;;33.30;63.50;;;;;;5053480;28;20220;-89
2022/08/13 13:02:34;;;;;;;5.78;5.03;;;33.50;63.30;;;;;;5053512;28;20236;-89
2022/08/13 13:05:02;;;;;;;5.22;4.85;;;33.50;63.40;;;;;;5053559;28;20224;-89
2022/08/13 13:07:49;;;;;;;6.43;5.82;;;33.60;63.80;;;;;;5053730;28;20283;-89
2022/08/13 13:10:38;;;;;;;6.63;6.03;;;33.40;64.00;;;;;;5053418;28;20217;-88
2022/08/13 13:13:16;;;;;;;6.03;4.85;;;33.00;64.00;;;;;;5053515;28;20201;-88
2022/08/13 13:16:07;;;;;;;4.50;4.20;;;32.80;64.30;;;;;;5053258;28;20205;-88
2022/08/13 13:18:55;;;;;;;4.90;4.50;;;32.80;63.30;;;;;;5053094;28;20206;-89
2022/08/13 13:21:29;;;;;;;5.13;4.80;;;32.90;64.10;;;;;;5053405;28;20229;-89
2022/08/13 13:24:07;;;;;;;5.10;4.70;;;32.80;64.00;;;;;;5053447;28;20265;-88
2022/08/13 13:26:47;;;;;;;5.38;4.88;;;32.50;62.80;;;;;;5053248;28;20205;-89
2022/08/13 13:29:32;;;;;;;5.18;4.78;;;32.30;63.80;;;;;;5053578;28;20213;-89
2022/08/13 13:32:12;;;;;;;6.57;5.63;;;32.20;65.10;;;;;;5052955;28;20225;-88
2022/08/13 13:35:00;;;;;;;6.20;5.60;;;32.00;65.80;;;;;;5053374;28;20206;-89
2022/08/13 13:37:43;;;;;;;5.38;4.88;;;31.90;65.60;;;;;;5054297;28;20264;-89
2022/08/13 13:40:32;;;;;;;4.45;4.15;;;31.60;65.50;;;;;;5073240;28;20276;-89
2022/08/13 13:43:00;;;;;;;4.80;4.40;;;31.60;64.50;;;;;;5058302;28;20265;-89
2022/08/13 13:45:51;;;;;;;5.15;4.63;;;31.50;65.00;;;;;;5053723;28;20237;-89
2022/08/13 13:48:23;;;;;;;6.55;4.97;;;31.60;64.30;;;;;;5053848;28;20206;-89
2022/08/13 13:50:52;;;;;;;5.20;4.72;;;31.50;63.10;;;;;;5053080;28;20221;-89
2022/08/13 13:53:20;;;;;;;4.82;4.53;;;31.20;63.30;;;;;;5053437;28;20209;-88
2022/08/13 13:56:01;;;;;;;4.40;4.10;;;31.00;63.90;;;;;;5053324;28;20280;-89